Time;durP1;ratioP1;P1;durP2;ratioP2;P2;SDS_P1;SDS_P2;PMS_P1;PMS_P2;Temp;Humidity;BMP_temperature;BMP_pressure;BME280_temperature;BME280_humidity;BME280_pressure;Samples;Min_cycle;Max_cycle;Signal;HPM_P1;HPM_P2
2021/01/08 00:01:08;;;;;;;12.25;4.50;;;2.90;99.90;;;;;;4986450;28;20064;-55
2021/01/08 00:03:34;;;;;;;7.97;4.43;;;2.70;99.90;;;;;;4990903;28;20413;-55
2021/01/08 00:06:00;;;;;;;8.30;3.78;;;2.60;99.90;;;;;;4988911;28;20054;-58
2021/01/08 00:08:41;;;;;;;8.65;3.95;;;2.70;99.90;;;;;;4990889;28;20030;-49
2021/01/08 00:11:07;;;;;;;9.57;4.30;;;2.70;99.90;;;;;;4989674;28;20483;-57
2021/01/08 00:13:33;;;;;;;8.18;3.65;;;2.60;99.90;;;;;;4966370;28;20038;-49
2021/01/08 00:15:58;;;;;;;7.93;3.50;;;2.50;99.90;;;;;;4984919;28;20042;-59
2021/01/08 00:18:24;;;;;;;7.82;4.15;;;2.40;99.90;;;;;;4989355;28;20160;-58
2021/01/08 00:20:50;;;;;;;6.45;3.78;;;2.40;99.90;;;;;;4989214;28;20399;-57
2021/01/08 00:23:15;;;;;;;9.88;3.72;;;2.30;99.90;;;;;;4990598;28;20074;-56
2021/01/08 00:25:59;;;;;;;6.53;3.78;;;2.30;99.90;;;;;;4989324;28;20049;-54
2021/01/08 00:28:25;;;;;;;6.82;3.47;;;2.30;99.90;;;;;;4979084;28;20132;-56
2021/01/08 00:30:54;;;;;;;6.85;3.17;;;2.30;99.90;;;;;;4988237;28;20494;-54
2021/01/08 00:33:23;;;;;;;6.90;3.58;;;2.30;99.90;;;;;;4980720;28;20034;-51
2021/01/08 00:35:48;;;;;;;5.93;3.00;;;2.30;99.90;;;;;;4990702;28;20109;-58
2021/01/08 00:38:17;;;;;;;8.10;3.30;;;2.30;99.90;;;;;;4988967;28;20502;-57
2021/01/08 00:40:43;;;;;;;7.53;3.58;;;2.30;99.90;;;;;;4988724;28;20034;-54
2021/01/08 00:43:08;;;;;;;6.95;2.85;;;2.50;99.90;;;;;;4988316;28;20045;-52
2021/01/08 00:45:43;;;;;;;6.30;3.50;;;2.60;99.90;;;;;;4989881;28;20038;-59
2021/01/08 00:48:09;;;;;;;6.28;3.35;;;2.80;99.90;;;;;;4989064;28;20573;-56
2021/01/08 00:50:35;;;;;;;6.22;2.75;;;2.70;99.90;;;;;;4989813;28;20061;-57
2021/01/08 00:53:00;;;;;;;7.05;3.25;;;2.60;99.90;;;;;;4988879;28;20053;-57
2021/01/08 00:55:26;;;;;;;7.13;3.35;;;2.50;99.90;;;;;;4990193;28;20105;-52
2021/01/08 00:57:53;;;;;;;7.05;2.67;;;2.40;99.90;;;;;;4988743;28;20034;-52
2021/01/08 01:00:19;;;;;;;4.72;2.50;;;2.40;99.90;;;;;;4989661;28;20038;-55
2021/01/08 01:02:44;;;;;;;5.03;2.25;;;2.30;99.90;;;;;;4988862;28;20402;-54
2021/01/08 01:05:10;;;;;;;6.63;2.30;;;2.30;99.90;;;;;;4989602;28;20119;-59
2021/01/08 01:07:54;;;;;;;8.13;3.17;;;2.30;99.90;;;;;;4980377;28;20129;-55
2021/01/08 01:10:20;;;;;;;6.38;2.67;;;2.20;99.90;;;;;;4970308;28;20110;-59
2021/01/08 01:12:50;;;;;;;5.20;1.90;;;2.30;99.90;;;;;;4979454;28;20125;-57
2021/01/08 01:15:17;;;;;;;4.65;2.45;;;2.30;99.90;;;;;;4988400;28;20125;-55
2021/01/08 01:17:43;;;;;;;6.00;2.40;;;2.20;99.90;;;;;;4987427;28;20083;-57
2021/01/08 01:20:09;;;;;;;7.35;2.60;;;2.10;99.90;;;;;;4989764;28;20042;-60
2021/01/08 01:22:35;;;;;;;5.80;2.47;;;1.90;99.90;;;;;;4988337;28;20120;-59
2021/01/08 01:25:00;;;;;;;8.93;2.90;;;1.90;99.90;;;;;;4989733;28;20133;-57
2021/01/08 01:27:26;;;;;;;5.47;2.67;;;1.90;99.90;;;;;;4982207;28;20097;-57
2021/01/08 01:29:52;;;;;;;5.85;2.22;;;1.90;99.90;;;;;;4969704;28;20039;-56
2021/01/08 01:32:43;;;;;;;6.28;2.13;;;1.80;99.90;;;;;;4977494;28;20034;-55
2021/01/08 01:35:10;;;;;;;4.13;2.13;;;1.70;99.90;;;;;;4988044;28;20042;-55
2021/01/08 01:37:35;;;;;;;5.10;2.42;;;1.70;99.90;;;;;;4988588;28;20093;-52
2021/01/08 01:40:17;;;;;;;7.60;2.45;;;1.60;99.90;;;;;;4989436;28;20430;-51
2021/01/08 01:42:42;;;;;;;7.95;2.83;;;1.60;99.90;;;;;;4988397;28;20071;-54
2021/01/08 01:45:08;;;;;;;5.68;2.45;;;1.70;99.90;;;;;;4989385;28;20117;-57
2021/01/08 01:47:43;;;;;;;5.07;2.47;;;1.70;99.90;;;;;;4980387;28;20479;-56
2021/01/08 01:50:10;;;;;;;8.35;3.65;;;1.60;99.90;;;;;;4987181;28;20453;-55
2021/01/08 01:52:36;;;;;;;10.35;4.35;;;1.60;99.90;;;;;;4989246;28;20044;-58
2021/01/08 01:55:07;;;;;;;7.60;3.70;;;1.80;99.90;;;;;;4988258;28;20063;-57
2021/01/08 01:57:33;;;;;;;9.13;5.00;;;1.80;99.90;;;;;;4988199;28;20097;-55
2021/01/08 02:00:06;;;;;;;8.65;4.90;;;1.80;99.90;;;;;;4989160;28;20034;-54
2021/01/08 02:02:34;;;;;;;8.13;5.40;;;1.80;99.90;;;;;;4987957;28;20044;-56
2021/01/08 02:05:14;;;;;;;9.18;5.57;;;1.70;99.90;;;;;;4988774;28;20173;-53
2021/01/08 02:07:51;;;;;;;7.55;5.30;;;1.70;99.90;;;;;;4987855;28;20236;-55
2021/01/08 02:10:19;;;;;;;9.57;6.25;;;1.80;99.90;;;;;;4989169;28;20042;-56
2021/01/08 02:12:46;;;;;;;12.77;6.40;;;1.70;99.90;;;;;;4987884;28;20066;-56
2021/01/08 02:15:15;;;;;;;11.13;7.05;;;1.70;99.90;;;;;;4988900;28;20037;-56
2021/01/08 02:17:45;;;;;;;10.13;6.90;;;1.70;99.90;;;;;;4988109;28;20093;-55
2021/01/08 02:20:12;;;;;;;10.13;6.65;;;1.60;99.90;;;;;;4988966;28;20042;-55
2021/01/08 02:22:53;;;;;;;12.13;7.10;;;1.60;99.90;;;;;;4987669;28;20069;-52
2021/01/08 02:25:23;;;;;;;11.57;6.15;;;1.60;99.90;;;;;;4989007;28;20392;-54
2021/01/08 02:28:17;;;;;;;11.65;5.57;;;1.50;99.90;;;;;;4986643;28;20073;-57
2021/01/08 02:30:44;;;;;;;7.57;5.25;;;1.50;99.90;;;;;;4989127;28;20392;-59
2021/01/08 02:33:31;;;;;;;10.60;5.68;;;1.40;99.90;;;;;;4988189;28;20034;-56
2021/01/08 02:36:00;;;;;;;9.80;5.38;;;1.50;99.90;;;;;;4988978;28;20529;-55
2021/01/08 02:38:27;;;;;;;12.10;5.30;;;1.40;99.90;;;;;;4987779;28;20030;-57
2021/01/08 02:43:23;;;;;;;9.50;5.80;;;1.40;99.90;;;;;;4512589;23;20050;-53
2021/01/08 02:45:53;;;;;;;10.32;5.07;;;1.40;99.90;;;;;;4992213;28;20046;-56
2021/01/08 02:48:19;;;;;;;7.40;4.57;;;1.40;99.90;;;;;;4992410;28;20121;-58
2021/01/08 02:50:45;;;;;;;6.68;3.85;;;1.40;99.90;;;;;;4992391;28;20060;-56
2021/01/08 02:53:15;;;;;;;8.75;4.82;;;1.40;99.90;;;;;;4992216;28;20438;-56
2021/01/08 02:55:50;;;;;;;9.60;4.55;;;1.30;99.90;;;;;;4992028;28;20030;-55
2021/01/08 02:58:16;;;;;;;6.55;4.13;;;1.30;99.90;;;;;;4992058;28;20030;-57
2021/01/08 03:00:43;;;;;;;10.80;5.30;;;1.30;99.90;;;;;;4991827;28;20058;-56
2021/01/08 03:03:09;;;;;;;9.15;4.72;;;1.30;99.90;;;;;;4992021;28;20034;-56
2021/01/08 03:05:39;;;;;;;10.20;5.57;;;1.30;99.90;;;;;;4991761;28;20050;-58
2021/01/08 03:08:08;;;;;;;8.98;3.95;;;1.20;99.90;;;;;;4991737;28;20040;-57
2021/01/08 03:10:34;;;;;;;6.93;4.00;;;1.20;99.90;;;;;;4991798;28;20037;-54
2021/01/08 03:13:07;;;;;;;8.65;4.20;;;1.10;99.90;;;;;;4992024;28;20034;-53
2021/01/08 03:15:33;;;;;;;7.45;4.00;;;1.10;99.90;;;;;;4992351;28;20031;-56
2021/01/08 03:17:59;;;;;;;10.23;3.90;;;1.10;99.90;;;;;;4991781;28;20461;-55
2021/01/08 03:20:24;;;;;;;9.52;5.95;;;1.00;99.90;;;;;;4991563;28;20045;-57
2021/01/08 03:22:50;;;;;;;8.73;4.28;;;1.00;99.90;;;;;;4991636;28;20107;-56
2021/01/08 03:25:16;;;;;;;6.40;3.78;;;1.00;99.90;;;;;;4991500;28;20045;-52
2021/01/08 03:27:42;;;;;;;9.73;5.47;;;1.00;99.90;;;;;;4991579;28;20042;-58
2021/01/08 03:30:09;;;;;;;6.47;4.30;;;1.00;99.90;;;;;;4991834;28;20072;-55
2021/01/08 03:32:35;;;;;;;9.32;4.50;;;1.10;99.90;;;;;;4991939;28;20386;-58
2021/01/08 03:35:01;;;;;;;9.00;4.53;;;1.10;99.90;;;;;;4991596;28;20035;-56
2021/01/08 03:37:27;;;;;;;8.68;4.43;;;1.00;99.90;;;;;;4991278;28;20508;-53
2021/01/08 03:39:53;;;;;;;8.35;4.47;;;1.10;99.90;;;;;;4991398;28;20039;-57
2021/01/08 03:42:18;;;;;;;8.02;4.72;;;1.00;99.90;;;;;;4990944;28;20050;-52
2021/01/08 03:44:44;;;;;;;8.77;4.63;;;1.00;99.90;;;;;;4991274;28;20050;-55
2021/01/08 03:47:10;;;;;;;7.22;4.38;;;0.90;99.90;;;;;;4991504;28;20105;-51
2021/01/08 03:49:38;;;;;;;7.28;3.70;;;1.00;99.90;;;;;;4991268;28;20486;-55
2021/01/08 03:52:08;;;;;;;7.28;3.83;;;1.00;99.90;;;;;;4990356;28;20406;-56
2021/01/08 03:54:35;;;;;;;5.88;3.22;;;1.00;99.90;;;;;;4990971;28;20038;-56
2021/01/08 03:57:01;;;;;;;6.15;3.40;;;0.90;99.90;;;;;;4991061;28;20390;-54
2021/01/08 03:59:27;;;;;;;5.85;3.50;;;0.80;99.90;;;;;;4991153;28;20093;-57
2021/01/08 04:01:53;;;;;;;6.63;3.95;;;0.90;99.90;;;;;;4990774;28;20037;-52
2021/01/08 04:04:28;;;;;;;6.50;3.95;;;0.90;99.90;;;;;;4990825;28;20038;-58
2021/01/08 04:06:53;;;;;;;7.70;4.18;;;0.90;99.90;;;;;;4989547;28;20113;-58
2021/01/08 04:09:19;;;;;;;7.78;3.50;;;1.00;99.90;;;;;;4990651;28;20065;-58
2021/01/08 04:11:48;;;;;;;8.13;4.15;;;1.10;99.90;;;;;;4990955;28;20061;-55
2021/01/08 04:14:14;;;;;;;7.80;4.10;;;1.00;99.90;;;;;;4991013;28;20026;-57
2021/01/08 04:16:43;;;;;;;8.60;4.00;;;1.10;99.90;;;;;;4991201;28;20039;-55
2021/01/08 04:19:17;;;;;;;10.82;4.22;;;1.10;99.90;;;;;;4990794;28;20117;-56
2021/01/08 04:21:46;;;;;;;11.95;5.75;;;1.10;99.90;;;;;;4991077;28;20112;-55
2021/01/08 04:24:13;;;;;;;8.48;5.07;;;1.00;99.90;;;;;;4990810;28;20061;-56
2021/01/08 04:26:42;;;;;;;9.63;6.20;;;1.00;99.90;;;;;;4990558;28;20049;-54
2021/01/08 04:29:07;;;;;;;10.93;6.18;;;1.00;99.90;;;;;;4990599;28;20041;-51
2021/01/08 04:31:36;;;;;;;8.98;5.72;;;1.00;99.90;;;;;;4990626;28;20037;-53
2021/01/08 04:34:02;;;;;;;9.25;5.63;;;1.10;99.90;;;;;;4990403;28;20038;-56
2021/01/08 04:36:34;;;;;;;7.15;5.18;;;1.10;99.90;;;;;;4990260;28;20116;-55
2021/01/08 04:39:00;;;;;;;9.98;6.03;;;1.00;99.90;;;;;;4990300;28;20042;-55
2021/01/08 04:41:28;;;;;;;8.43;5.63;;;1.00;99.90;;;;;;4990243;28;20041;-57
2021/01/08 04:43:54;;;;;;;8.88;5.70;;;1.00;99.90;;;;;;5026384;28;20061;-55
2021/01/08 04:46:27;;;;;;;11.88;7.00;;;0.90;99.90;;;;;;5029399;28;20048;-56
2021/01/08 04:48:57;;;;;;;10.07;5.68;;;0.90;99.90;;;;;;5029144;28;20025;-56
2021/01/08 04:51:24;;;;;;;12.50;6.65;;;0.90;99.90;;;;;;5029527;28;20040;-53
2021/01/08 04:54:00;;;;;;;9.40;5.45;;;0.90;99.90;;;;;;5029389;28;20128;-57
2021/01/08 04:56:38;;;;;;;9.47;5.87;;;0.90;99.90;;;;;;5029256;28;20071;-58
2021/01/08 04:59:04;;;;;;;11.70;5.53;;;0.90;99.90;;;;;;5029185;28;20041;-54
2021/01/08 05:01:30;;;;;;;9.32;4.38;;;0.90;99.90;;;;;;5029464;28;20338;-54
2021/01/08 05:03:56;;;;;;;10.57;5.85;;;0.80;99.90;;;;;;5029355;28;20037;-58
2021/01/08 05:06:26;;;;;;;10.27;5.60;;;0.80;99.90;;;;;;5028962;28;20168;-57
2021/01/08 05:08:52;;;;;;;10.20;6.03;;;0.90;99.90;;;;;;5029229;28;20033;-50
2021/01/08 05:11:24;;;;;;;11.07;5.85;;;0.90;99.90;;;;;;5028897;28;20041;-58
2021/01/08 05:14:09;;;;;;;10.80;6.53;;;0.90;99.90;;;;;;5028799;28;20037;-56
2021/01/08 05:16:37;;;;;;;10.23;6.18;;;0.90;99.90;;;;;;5029135;28;20033;-55
2021/01/08 05:19:06;;;;;;;9.82;6.53;;;0.90;99.90;;;;;;5028949;28;20369;-52
2021/01/08 05:21:41;;;;;;;11.35;6.50;;;1.00;99.90;;;;;;5028872;28;20029;-57
2021/01/08 05:24:07;;;;;;;14.20;5.95;;;1.00;99.90;;;;;;5028815;28;20034;-53
2021/01/08 05:26:33;;;;;;;10.20;5.85;;;0.90;99.90;;;;;;5028447;28;20160;-55
2021/01/08 05:29:01;;;;;;;10.73;5.97;;;0.90;99.90;;;;;;5028789;28;20136;-57
2021/01/08 05:31:34;;;;;;;7.97;4.88;;;0.80;99.90;;;;;;5028759;28;20036;-57
2021/01/08 05:34:00;;;;;;;10.30;5.47;;;0.90;99.90;;;;;;5028641;28;20352;-54
2021/01/08 05:36:26;;;;;;;8.07;4.82;;;0.90;99.90;;;;;;5028603;28;20077;-56
2021/01/08 05:38:54;;;;;;;8.85;4.85;;;0.90;99.90;;;;;;5028586;28;20037;-56
2021/01/08 05:41:26;;;;;;;11.07;5.60;;;0.90;99.90;;;;;;5028898;28;20045;-53
2021/01/08 05:43:53;;;;;;;9.73;4.95;;;0.90;99.90;;;;;;5028430;28;20079;-58
2021/01/08 05:46:50;;;;;;;9.25;5.20;;;0.90;99.90;;;;;;5028638;28;20045;-58
2021/01/08 05:49:17;;;;;;;29.52;14.45;;;0.90;99.90;;;;;;5028130;28;20034;-57
2021/01/08 05:51:44;;;;;;;15.05;7.75;;;1.00;99.90;;;;;;5028550;28;20060;-59
2021/01/08 05:54:11;;;;;;;13.10;7.95;;;1.00;99.90;;;;;;5028626;28;20060;-51
2021/01/08 05:56:37;;;;;;;13.75;8.38;;;1.00;99.90;;;;;;5028646;28;20029;-55
2021/01/08 05:59:08;;;;;;;21.35;9.52;;;1.00;99.90;;;;;;5026293;28;20033;-52
2021/01/08 06:01:36;;;;;;;14.52;7.53;;;1.00;99.90;;;;;;5026628;28;20049;-56
2021/01/08 06:04:02;;;;;;;12.60;6.38;;;0.90;99.90;;;;;;5026973;28;20489;-54
2021/01/08 06:06:42;;;;;;;15.32;8.50;;;0.80;99.90;;;;;;5009773;28;20053;-58
2021/01/08 06:09:11;;;;;;;17.42;8.82;;;0.80;99.90;;;;;;5008676;28;20045;-50
2021/01/08 06:11:39;;;;;;;15.98;9.43;;;0.90;99.90;;;;;;5008435;28;20108;-55
2021/01/08 06:14:06;;;;;;;18.50;7.82;;;0.90;99.90;;;;;;5008995;28;20109;-56
2021/01/08 06:17:13;;;;;;;14.00;8.25;;;0.90;99.90;;;;;;5011128;28;20029;-55
2021/01/08 06:19:39;;;;;;;14.68;7.57;;;1.00;99.90;;;;;;5012243;28;20038;-54
2021/01/08 06:22:05;;;;;;;15.63;7.75;;;1.00;99.90;;;;;;5012483;28;20061;-54
2021/01/08 06:24:31;;;;;;;18.85;8.40;;;1.10;99.90;;;;;;5012602;28;20123;-56
2021/01/08 06:26:58;;;;;;;11.98;7.40;;;1.10;99.90;;;;;;5012198;28;20034;-54
2021/01/08 06:29:26;;;;;;;14.88;7.38;;;1.00;99.90;;;;;;5012505;28;20034;-52
2021/01/08 06:31:52;;;;;;;12.88;7.03;;;0.90;99.90;;;;;;5012334;28;20137;-52
2021/01/08 06:34:29;;;;;;;14.77;7.65;;;1.00;99.90;;;;;;5012102;28;20488;-55
2021/01/08 06:37:09;;;;;;;14.15;7.50;;;1.00;99.90;;;;;;5012178;28;20457;-53
2021/01/08 06:39:44;;;;;;;11.23;6.60;;;0.90;99.90;;;;;;5012156;28;20565;-51
2021/01/08 06:42:10;;;;;;;13.10;7.47;;;0.90;99.90;;;;;;5012088;28;20100;-57
2021/01/08 06:44:36;;;;;;;10.52;7.60;;;0.90;99.90;;;;;;5012005;28;20038;-55
2021/01/08 06:47:04;;;;;;;10.05;6.70;;;0.90;99.90;;;;;;5011937;28;20110;-50
2021/01/08 06:49:32;;;;;;;10.38;7.03;;;1.00;99.90;;;;;;5012423;28;20110;-53
2021/01/08 06:52:03;;;;;;;9.80;6.38;;;1.00;99.90;;;;;;5011725;28;20037;-53
2021/01/08 06:54:29;;;;;;;10.07;6.13;;;1.00;99.90;;;;;;5011703;28;20116;-55
2021/01/08 06:57:02;;;;;;;10.90;6.55;;;1.00;99.90;;;;;;5011930;28;20168;-55
2021/01/08 06:59:35;;;;;;;13.45;7.35;;;1.10;99.90;;;;;;5011731;28;20037;-56
2021/01/08 07:02:29;;;;;;;12.63;6.80;;;1.10;99.90;;;;;;5010173;28;20044;-58
2021/01/08 07:04:55;;;;;;;12.80;6.85;;;1.20;99.90;;;;;;5024448;28;20124;-54
2021/01/08 07:07:24;;;;;;;11.43;6.78;;;1.20;99.90;;;;;;5027280;28;20035;-51
2021/01/08 07:09:56;;;;;;;10.13;7.28;;;1.20;99.90;;;;;;5025028;28;20508;-53
2021/01/08 07:12:24;;;;;;;13.18;6.40;;;1.10;99.90;;;;;;5015893;28;20029;-58
2021/01/08 07:14:53;;;;;;;9.05;5.43;;;1.20;99.90;;;;;;5023123;28;20045;-58
2021/01/08 07:17:32;;;;;;;13.77;5.80;;;1.20;99.90;;;;;;5025869;28;20112;-56
2021/01/08 07:20:00;;;;;;;8.98;4.63;;;1.30;99.90;;;;;;5026836;28;20039;-56
2021/01/08 07:22:38;;;;;;;8.52;4.20;;;1.30;99.90;;;;;;5027995;28;20153;-55
2021/01/08 07:25:07;;;;;;;7.45;3.78;;;1.30;99.90;;;;;;5030180;28;20029;-54
2021/01/08 07:27:34;;;;;;;8.63;4.53;;;1.30;99.90;;;;;;5029608;28;20022;-55
2021/01/08 07:30:03;;;;;;;10.90;4.35;;;1.40;99.90;;;;;;5030919;28;20061;-53
2021/01/08 07:32:51;;;;;;;15.88;5.65;;;1.40;99.90;;;;;;5030829;28;20041;-56
2021/01/08 07:35:26;;;;;;;10.90;6.63;;;1.40;99.90;;;;;;5030584;28;20057;-55
2021/01/08 07:37:55;;;;;;;12.10;6.45;;;1.40;99.90;;;;;;5025097;28;20092;-53
2021/01/08 07:40:20;;;;;;;11.05;6.38;;;1.50;99.90;;;;;;5020846;28;20117;-52
2021/01/08 07:43:00;;;;;;;13.68;6.93;;;1.50;99.90;;;;;;5026949;28;20410;-53
2021/01/08 07:45:45;;;;;;;17.58;6.60;;;1.50;99.90;;;;;;5024553;28;20076;-55
2021/01/08 07:48:24;;;;;;;12.25;6.30;;;1.50;99.90;;;;;;5030388;28;20101;-56
2021/01/08 07:50:57;;;;;;;14.43;7.20;;;1.50;99.90;;;;;;5030372;28;20033;-58
2021/01/08 07:53:41;;;;;;;17.40;7.47;;;1.60;99.90;;;;;;5030483;28;20036;-55
2021/01/08 07:56:08;;;;;;;13.35;7.05;;;1.60;99.90;;;;;;5030601;28;20041;-53
2021/01/08 07:58:37;;;;;;;13.75;7.70;;;1.60;99.90;;;;;;5030143;28;20033;-57
2021/01/08 08:01:07;;;;;;;14.98;8.10;;;1.60;99.90;;;;;;5030512;28;20029;-50
2021/01/08 08:03:33;;;;;;;14.90;7.53;;;1.70;99.90;;;;;;5030466;28;20481;-55
2021/01/08 08:06:08;;;;;;;13.23;7.93;;;1.70;99.90;;;;;;5030187;28;20587;-54
2021/01/08 08:08:42;;;;;;;20.77;9.65;;;1.80;99.90;;;;;;5030234;28;20397;-55
2021/01/08 08:11:27;;;;;;;15.15;8.15;;;1.80;99.90;;;;;;5029976;28;20048;-50
2021/01/08 08:14:04;;;;;;;16.48;8.25;;;1.70;99.90;;;;;;5030067;28;20037;-54
2021/01/08 08:16:38;;;;;;;13.23;7.25;;;1.80;99.90;;;;;;5029965;28;20029;-55
2021/01/08 08:19:09;;;;;;;14.85;9.32;;;1.80;99.90;;;;;;5029974;28;20040;-56
2021/01/08 08:21:36;;;;;;;17.50;9.38;;;1.80;99.90;;;;;;5029791;28;20121;-49
2021/01/08 08:24:04;;;;;;;13.60;8.57;;;1.80;99.90;;;;;;5030024;28;20021;-51
2021/01/08 08:26:31;;;;;;;17.63;10.55;;;1.80;99.90;;;;;;5029574;28;20064;-57
2021/01/08 08:29:26;;;;;;;19.30;9.82;;;1.80;99.90;;;;;;5030144;28;20071;-54
2021/01/08 08:31:52;;;;;;;15.10;10.00;;;1.70;99.90;;;;;;5025447;28;20038;-55
2021/01/08 08:34:33;;;;;;;18.45;10.57;;;1.70;99.90;;;;;;5026299;28;20032;-51
2021/01/08 08:37:09;;;;;;;19.95;10.98;;;1.70;99.90;;;;;;4994403;28;20382;-56
2021/01/08 08:39:35;;;;;;;19.20;10.90;;;1.80;99.90;;;;;;5027765;28;20033;-53
2021/01/08 08:42:07;;;;;;;20.67;11.73;;;1.80;99.90;;;;;;5023517;28;20494;-59
2021/01/08 08:44:51;;;;;;;18.60;10.98;;;1.90;99.90;;;;;;5025847;28;20040;-53
2021/01/08 08:47:17;;;;;;;22.48;11.73;;;2.10;99.90;;;;;;5023749;28;20041;-56
2021/01/08 08:49:44;;;;;;;18.58;10.05;;;2.10;99.90;;;;;;5009738;28;20389;-56
2021/01/08 08:52:10;;;;;;;20.38;11.00;;;2.20;99.90;;;;;;5013339;28;20029;-54
2021/01/08 08:54:39;;;;;;;19.65;10.20;;;2.40;99.90;;;;;;5008012;28;20042;-52
2021/01/08 08:57:05;;;;;;;19.25;9.60;;;2.60;99.90;;;;;;5009695;28;20508;-52
2021/01/08 08:59:40;;;;;;;17.80;9.10;;;2.70;99.90;;;;;;5011929;28;20429;-54
2021/01/08 09:02:07;;;;;;;17.70;10.02;;;2.90;99.90;;;;;;5029307;28;20103;-53
2021/01/08 09:04:33;;;;;;;17.33;7.72;;;3.00;99.90;;;;;;5021700;28;20037;-53
2021/01/08 09:07:18;;;;;;;12.20;6.90;;;3.10;99.90;;;;;;5014172;28;20463;-54
2021/01/08 09:09:46;;;;;;;9.70;6.15;;;3.30;99.90;;;;;;5014617;28;20025;-55
2021/01/08 09:12:39;;;;;;;13.40;7.07;;;3.40;99.90;;;;;;5028870;28;20041;-54
2021/01/08 09:15:23;;;;;;;17.70;6.63;;;3.60;99.90;;;;;;5028875;28;20035;-55
2021/01/08 09:18:15;;;;;;;13.60;6.53;;;3.80;99.90;;;;;;5028092;28;20084;-55
2021/01/08 09:21:07;;;;;;;14.35;6.18;;;3.90;99.90;;;;;;5013868;28;20041;-55
2021/01/08 09:23:35;;;;;;;9.27;5.10;;;4.00;99.90;;;;;;4939028;29;20074;-54
2021/01/08 09:26:06;;;;;;;12.77;6.63;;;4.10;99.90;;;;;;5021096;28;20507;-55
2021/01/08 09:28:55;;;;;;;9.63;4.72;;;4.30;99.90;;;;;;5009035;28;20494;-53
2021/01/08 09:31:48;;;;;;;10.25;4.60;;;4.50;99.90;;;;;;5009310;28;20070;-55
2021/01/08 09:34:19;;;;;;;7.75;3.70;;;4.60;99.90;;;;;;5028615;28;20095;-55
2021/01/08 09:36:47;;;;;;;4.80;2.67;;;4.70;99.90;;;;;;5006280;28;20497;-50
2021/01/08 09:39:16;;;;;;;8.25;2.72;;;4.80;99.90;;;;;;5024312;28;20107;-56
2021/01/08 09:42:00;;;;;;;5.30;2.38;;;4.80;99.90;;;;;;5026637;28;20117;-54
2021/01/08 09:44:36;;;;;;;2.78;0.70;;;4.80;99.90;;;;;;5026909;28;20215;-56
2021/01/08 09:47:12;;;;;;;3.10;1.08;;;5.00;99.90;;;;;;5025775;28;20204;-57
2021/01/08 09:49:52;;;;;;;3.08;0.70;;;5.10;99.90;;;;;;5028359;28;20034;-57
2021/01/08 09:52:27;;;;;;;2.80;0.57;;;5.10;99.90;;;;;;5015236;28;20482;-54
2021/01/08 09:54:53;;;;;;;2.45;0.80;;;5.10;99.90;;;;;;4991483;28;20149;-51
2021/01/08 09:57:29;;;;;;;6.85;2.60;;;5.10;99.90;;;;;;5009244;28;20113;-52
2021/01/08 10:00:15;;;;;;;;;;;5.30;99.90;;;;;;5009067;28;20068;-58
2021/01/08 10:02:45;;;;;;;5.07;1.98;;;5.60;99.90;;;;;;5008700;28;19919;-54
2021/01/08 10:05:38;;;;;;;3.78;1.20;;;5.90;99.90;;;;;;5008545;28;20125;-56
2021/01/08 10:08:05;;;;;;;6.10;2.72;;;6.00;99.90;;;;;;5008476;28;20072;-51
2021/01/08 10:10:35;;;;;;;5.97;2.20;;;5.90;99.90;;;;;;5008704;28;20426;-57
2021/01/08 10:13:03;;;;;;;5.50;1.45;;;5.80;99.90;;;;;;5008540;28;20041;-54
2021/01/08 10:15:46;;;;;;;2.17;0.30;;;5.80;99.90;;;;;;5008663;28;20113;-51
2021/01/08 10:18:24;;;;;;;1.38;0.40;;;5.90;99.50;;;;;;5008914;28;20149;-58
2021/01/08 10:21:05;;;;;;;2.42;0.45;;;6.00;97.50;;;;;;5008456;28;20111;-58
2021/01/08 10:23:38;;;;;;;0.90;0.25;;;6.10;97.60;;;;;;5008646;28;20497;-54
2021/01/08 10:26:11;;;;;;;0.50;0.20;;;6.00;97.60;;;;;;5008531;28;20062;-52
2021/01/08 10:28:48;;;;;;;0.57;0.20;;;6.00;94.20;;;;;;5008339;28;20042;-54
2021/01/08 10:31:16;;;;;;;0.57;0.20;;;6.00;95.40;;;;;;5008226;28;20037;-48
2021/01/08 10:33:42;;;;;;;1.10;0.40;;;6.00;96.70;;;;;;4990949;28;20066;-54
2021/01/08 10:36:15;;;;;;;1.20;0.40;;;6.00;96.00;;;;;;5006257;28;20485;-54
2021/01/08 10:38:43;;;;;;;1.30;0.30;;;5.90;98.70;;;;;;5008330;28;20033;-56
2021/01/08 10:41:09;;;;;;;1.23;0.22;;;5.90;94.90;;;;;;5008169;28;20083;-56
2021/01/08 10:43:35;;;;;;;2.25;0.40;;;5.90;92.10;;;;;;5008138;28;20141;-56
2021/01/08 10:46:05;;;;;;;1.85;0.30;;;5.90;92.90;;;;;;5006727;28;20042;-54
2021/01/08 10:48:31;;;;;;;0.95;0.30;;;5.80;92.90;;;;;;5018818;28;20034;-53
2021/01/08 10:50:58;;;;;;;1.27;0.30;;;5.90;92.30;;;;;;5023047;28;20052;-58
2021/01/08 10:53:24;;;;;;;1.98;0.40;;;5.80;93.90;;;;;;5027933;28;20029;-52
2021/01/08 10:55:50;;;;;;;1.38;0.30;;;5.80;94.70;;;;;;5016474;28;20108;-56
2021/01/08 10:58:17;;;;;;;1.00;0.30;;;5.80;94.90;;;;;;5021704;28;20040;-55
2021/01/08 11:00:47;;;;;;;2.58;0.45;;;5.80;94.00;;;;;;5026758;28;20056;-57
2021/01/08 11:03:14;;;;;;;0.50;0.20;;;5.80;91.10;;;;;;5029394;28;20439;-54
2021/01/08 11:05:42;;;;;;;0.82;0.30;;;5.90;90.30;;;;;;5030312;28;20048;-52
2021/01/08 11:08:08;;;;;;;0.40;0.40;;;5.90;90.20;;;;;;5030885;28;20033;-52
2021/01/08 11:10:36;;;;;;;2.45;0.20;;;5.90;88.60;;;;;;5030537;28;20304;-55
2021/01/08 11:13:02;;;;;;;0.60;0.20;;;6.00;87.50;;;;;;5030632;28;20025;-51
2021/01/08 11:15:28;;;;;;;0.50;0.20;;;6.00;91.10;;;;;;5030374;28;20418;-56
2021/01/08 11:17:54;;;;;;;2.92;0.25;;;6.10;86.40;;;;;;5018284;28;20406;-54
2021/01/08 11:20:21;;;;;;;0.90;0.30;;;6.10;90.70;;;;;;5008905;28;20045;-53
2021/01/08 11:23:17;;;;;;;0.55;0.20;;;6.10;90.60;;;;;;5028442;28;20037;-53
2021/01/08 11:25:46;;;;;;;0.60;0.20;;;6.20;87.50;;;;;;5014035;28;20549;-51
2021/01/08 11:28:18;;;;;;;2.00;0.20;;;6.30;85.60;;;;;;5024785;28;20037;-57
2021/01/08 11:30:45;;;;;;;1.15;0.20;;;6.50;86.00;;;;;;5029056;28;20026;-54
2021/01/08 11:33:11;;;;;;;2.90;0.22;;;6.50;88.70;;;;;;5029908;28;20397;-48
2021/01/08 11:35:37;;;;;;;1.65;0.22;;;6.40;82.50;;;;;;5027556;28;20052;-52
2021/01/08 11:38:03;;;;;;;2.65;0.22;;;6.40;80.00;;;;;;5011004;28;20034;-54
2021/01/08 11:40:29;;;;;;;1.08;0.30;;;6.40;82.60;;;;;;5027240;28;20037;-54
2021/01/08 11:42:55;;;;;;;1.88;0.30;;;6.30;81.30;;;;;;5015115;28;20447;-56
2021/01/08 11:45:22;;;;;;;0.85;0.30;;;6.30;79.30;;;;;;5027027;28;20071;-59
2021/01/08 11:47:48;;;;;;;3.75;0.98;;;6.40;78.10;;;;;;5030514;28;20025;-52
2021/01/08 11:50:14;;;;;;;3.78;0.52;;;6.30;78.10;;;;;;5021018;28;20099;-53
2021/01/08 11:52:44;;;;;;;3.35;0.70;;;6.30;77.70;;;;;;5011770;28;20565;-55
2021/01/08 11:55:10;;;;;;;2.10;0.50;;;6.30;80.00;;;;;;5017773;28;20396;-53
2021/01/08 11:57:36;;;;;;;1.23;0.45;;;6.30;78.40;;;;;;5026479;28;20044;-54
2021/01/08 12:00:04;;;;;;;1.20;0.40;;;6.20;77.20;;;;;;5011193;28;20030;-55
2021/01/08 12:02:30;;;;;;;1.83;0.80;;;6.20;79.90;;;;;;5017934;28;20038;-54
2021/01/08 12:04:56;;;;;;;1.58;0.30;;;6.20;77.60;;;;;;5025356;28;20072;-57
2021/01/08 12:07:22;;;;;;;1.08;0.22;;;6.20;75.60;;;;;;5025148;28;20072;-55
2021/01/08 12:09:48;;;;;;;0.85;0.20;;;6.30;76.90;;;;;;5024814;28;20045;-58
2021/01/08 12:12:14;;;;;;;0.60;0.20;;;6.30;76.90;;;;;;5021987;28;20033;-55
2021/01/08 12:14:41;;;;;;;0.85;0.20;;;6.30;76.10;;;;;;5028023;28;20036;-54
2021/01/08 12:17:10;;;;;;;0.60;0.25;;;6.30;80.20;;;;;;5029454;28;20396;-58
2021/01/08 12:19:37;;;;;;;2.38;0.30;;;6.30;76.00;;;;;;5026496;28;20041;-54
2021/01/08 12:22:04;;;;;;;3.85;2.75;;;6.20;78.30;;;;;;5016252;28;20044;-55
2021/01/08 12:24:31;;;;;;;0.75;0.40;;;6.30;76.00;;;;;;5026128;28;20131;-51
2021/01/08 12:26:58;;;;;;;0.68;0.22;;;6.20;74.50;;;;;;5003539;28;20123;-54
2021/01/08 12:29:25;;;;;;;0.57;0.20;;;6.30;78.70;;;;;;5026836;28;20493;-53
2021/01/08 12:31:58;;;;;;;1.70;0.40;;;6.20;81.00;;;;;;5022011;28;20033;-56
2021/01/08 12:34:24;;;;;;;1.42;0.30;;;6.30;80.10;;;;;;5024743;28;20088;-51
2021/01/08 12:36:51;;;;;;;0.63;0.20;;;6.30;78.90;;;;;;5026743;28;20069;-54
2021/01/08 12:39:19;;;;;;;1.27;0.30;;;6.30;75.40;;;;;;5029432;28;20497;-56
2021/01/08 12:41:45;;;;;;;0.63;0.20;;;6.30;72.90;;;;;;5023485;28;20160;-52
2021/01/08 12:44:11;;;;;;;1.95;0.20;;;6.30;71.30;;;;;;5024537;28;20545;-52
2021/01/08 12:46:38;;;;;;;0.82;0.15;;;6.30;73.50;;;;;;5008206;28;20042;-54
2021/01/08 12:49:05;;;;;;;1.58;0.22;;;6.30;75.00;;;;;;5022883;28;20033;-57
2021/01/08 12:51:36;;;;;;;0.50;0.20;;;6.20;73.70;;;;;;5024079;28;20419;-56
2021/01/08 12:54:03;;;;;;;1.05;0.30;;;6.30;73.50;;;;;;5015678;28;20037;-57
2021/01/08 12:56:37;;;;;;;2.03;0.45;;;6.30;77.20;;;;;;5029453;28;20029;-57
2021/01/08 12:59:04;;;;;;;1.05;0.20;;;6.30;72.70;;;;;;5029256;28;20563;-54
2021/01/08 13:01:30;;;;;;;1.73;0.50;;;6.30;74.20;;;;;;5009861;28;20160;-52
2021/01/08 13:03:56;;;;;;;2.47;0.30;;;6.30;77.10;;;;;;5011048;28;20119;-52
2021/01/08 13:06:26;;;;;;;1.20;0.40;;;6.40;75.00;;;;;;5026179;28;20041;-56
2021/01/08 13:08:54;;;;;;;2.65;0.70;;;6.40;72.10;;;;;;5029011;28;20032;-56
2021/01/08 13:11:20;;;;;;;2.30;0.40;;;6.30;79.80;;;;;;5021046;28;20484;-55